Time;durP1;ratioP1;P1;durP2;ratioP2;P2;SDS_P1;SDS_P2;PMS_P1;PMS_P2;Temp;Humidity;BMP_temperature;BMP_pressure;BME280_temperature;BME280_humidity;BME280_pressure;Samples;Min_cycle;Max_cycle;Signal;HPM_P1;HPM_P2
2022/10/09 00:03:04;;;;;;;4.70;1.67;;;;;;;10.70;84.84;102331.47;6165641;28;20836;-69
2022/10/09 00:06:27;;;;;;;3.63;1.70;;;;;;;10.76;84.51;102341.00;6165085;28;20234;-68
2022/10/09 00:09:48;;;;;;;7.17;1.80;;;;;;;10.65;84.85;102343.53;6162592;28;20284;-69
2022/10/09 00:13:09;;;;;;;3.07;1.73;;;;;;;10.73;84.12;102343.88;6168434;28;22455;-69
2022/10/09 00:16:30;;;;;;;1.77;1.67;;;;;;;10.73;84.71;102347.44;6181002;28;20268;-69
2022/10/09 00:19:52;;;;;;;4.67;2.10;;;;;;;10.73;84.54;102351.97;6178198;28;20238;-69
2022/10/09 00:23:16;;;;;;;3.10;2.13;;;;;;;10.47;85.76;102351.00;6170036;28;20230;-69
2022/10/09 00:26:37;;;;;;;2.47;1.30;;;;;;;10.49;86.43;102353.59;6166134;28;20237;-70
2022/10/09 00:29:58;;;;;;;3.30;1.63;;;;;;;10.44;85.71;102351.19;6162436;28;20230;-69
2022/10/09 00:33:20;;;;;;;1.87;1.70;;;;;;;10.40;85.78;102345.13;6164206;28;20238;-69
2022/10/09 00:36:42;;;;;;;5.27;2.53;;;;;;;10.47;86.25;102348.31;6165011;28;20222;-70
2022/10/09 00:40:03;;;;;;;6.50;2.30;;;;;;;10.44;86.05;102361.97;6161727;28;20297;-69
2022/10/09 00:43:40;;;;;;;4.03;2.70;;;;;;;10.53;85.84;102368.59;6163203;28;20541;-70
2022/10/09 00:47:01;;;;;;;2.97;2.60;;;;;;;10.41;86.57;102363.03;6167397;28;20226;-69
2022/10/09 00:50:25;;;;;;;5.30;2.20;;;;;;;10.47;85.94;102377.97;6164983;28;20230;-70
2022/10/09 00:53:47;;;;;;;7.73;2.27;;;;;;;10.47;85.82;102372.56;6174798;28;20797;-69
2022/10/09 00:57:09;;;;;;;8.07;2.70;;;;;;;10.55;86.39;102378.34;6181831;28;20222;-69
2022/10/09 01:00:30;;;;;;;8.63;2.70;;;;;;;10.51;86.23;102378.63;6179725;28;20230;-69
2022/10/09 01:03:51;;;;;;;3.27;2.43;;;;;;;10.45;86.52;102385.28;6181609;28;20719;-70
2022/10/09 01:07:21;;;;;;;4.77;2.23;;;;;;;10.44;86.92;102391.63;6177553;28;20226;-69
2022/10/09 01:10:52;;;;;;;3.73;2.17;;;;;;;10.45;86.85;102387.97;6177908;28;20233;-70
2022/10/09 01:14:21;;;;;;;3.40;1.93;;;;;;;10.44;86.13;102397.88;6181143;28;21764;-69
2022/10/09 01:17:51;;;;;;;4.03;2.10;;;;;;;10.32;87.17;102390.59;6182895;28;20241;-70
2022/10/09 01:21:17;;;;;;;2.43;1.50;;;;;;;10.26;87.27;102384.72;6178050;28;20225;-69
2022/10/09 01:24:39;;;;;;;6.17;2.80;;;;;;;10.23;87.15;102379.50;6179008;28;20309;-70
2022/10/09 01:28:05;;;;;;;3.77;2.20;;;;;;;10.18;87.23;102373.56;6173864;28;20603;-69
2022/10/09 01:31:30;;;;;;;8.33;2.83;;;;;;;10.15;87.96;102376.44;6179769;28;20246;-70
2022/10/09 01:34:53;;;;;;;9.57;2.13;;;;;;;10.28;87.39;102377.41;6179294;28;20237;-69
2022/10/09 01:38:15;;;;;;;4.30;1.87;;;;;;;10.23;87.16;102377.69;6178842;28;20647;-70
2022/10/09 01:41:37;;;;;;;4.23;2.37;;;;;;;10.31;86.95;102372.66;6179301;28;20226;-69
2022/10/09 01:44:59;;;;;;;4.43;2.80;;;;;;;10.19;87.27;102373.47;6179216;28;20234;-70
2022/10/09 01:48:23;;;;;;;7.33;3.73;;;;;;;10.29;86.75;102373.72;6182436;28;20230;-70
2022/10/09 01:51:51;;;;;;;2.53;2.30;;;;;;;10.24;86.41;102365.09;6177055;28;20233;-70
2022/10/09 01:55:25;;;;;;;1.60;1.30;;;;;;;10.33;86.09;102370.75;6176946;28;20245;-69
2022/10/09 01:58:52;;;;;;;2.27;0.97;;;;;;;10.40;86.43;102371.22;6176300;28;20312;-69
2022/10/09 02:02:14;;;;;;;5.90;2.03;;;;;;;10.45;85.75;102380.72;6182545;28;20245;-70
2022/10/09 02:05:37;;;;;;;1.80;1.70;;;;;;;10.52;85.18;102373.13;6177555;28;20229;-70
2022/10/09 02:08:59;;;;;;;3.87;1.37;;;;;;;10.49;85.94;102373.34;6174844;28;20804;-69
2022/10/09 02:12:24;;;;;;;3.43;1.50;;;;;;;10.43;85.66;102379.97;6181268;28;20230;-69
2022/10/09 02:15:50;;;;;;;3.40;1.90;;;;;;;10.63;85.51;102381.38;6177410;28;20230;-70
2022/10/09 02:19:17;;;;;;;11.27;2.37;;;;;;;10.67;84.52;102393.72;6181520;28;20234;-70
2022/10/09 02:22:37;;;;;;;7.37;1.83;;;;;;;10.62;84.32;102390.44;6182138;28;20237;-70
2022/10/09 02:25:58;;;;;;;5.83;2.97;;;;;;;10.72;83.82;102388.88;6184579;28;20253;-70
2022/10/09 02:29:20;;;;;;;1.53;1.43;;;;;;;10.78;83.92;102387.63;6169327;28;20253;-70
2022/10/09 02:32:41;;;;;;;7.17;2.33;;;;;;;10.71;83.96;102392.53;6181276;28;20237;-69
2022/10/09 02:36:04;;;;;;;2.43;2.07;;;;;;;10.75;84.01;102398.59;6182089;28;20838;-69
2022/10/09 02:39:25;;;;;;;2.43;2.23;;;;;;;10.73;83.85;102392.44;6181455;28;20229;-70
2022/10/09 02:42:46;;;;;;;1.27;1.10;;;;;;;10.78;83.86;102393.88;6181945;28;20901;-69
2022/10/09 02:46:07;;;;;;;2.83;1.57;;;;;;;10.79;83.76;102392.91;6181322;28;21084;-70
2022/10/09 02:49:28;;;;;;;2.87;2.23;;;;;;;10.72;83.27;102391.56;6187226;28;20230;-70
2022/10/09 02:52:50;;;;;;;5.90;1.97;;;;;;;10.60;83.93;102394.22;6179879;28;20230;-69
2022/10/09 02:56:11;;;;;;;5.83;1.57;;;;;;;10.48;84.72;102389.59;6183778;28;20612;-69
2022/10/09 02:59:32;;;;;;;3.00;1.83;;;;;;;10.52;85.09;102389.28;6184164;28;20229;-69
2022/10/09 03:02:54;;;;;;;2.60;1.53;;;;;;;10.50;84.60;102395.75;6183793;28;20233;-70
2022/10/09 03:06:17;;;;;;;3.17;2.20;;;;;;;10.53;84.80;102400.97;6180791;28;20245;-69
2022/10/09 03:09:39;;;;;;;2.20;1.70;;;;;;;10.58;84.51;102401.50;6181150;28;20238;-70
2022/10/09 03:13:00;;;;;;;1.63;1.53;;;;;;;10.55;84.56;102405.28;6181868;28;20229;-69
2022/10/09 03:16:22;;;;;;;3.50;1.50;;;;;;;10.54;84.66;102414.34;6181703;28;20517;-70
2022/10/09 03:19:43;;;;;;;3.43;1.40;;;;;;;10.40;85.20;102409.84;6180967;28;20322;-71
2022/10/09 03:23:04;;;;;;;2.93;2.63;;;;;;;10.36;85.85;102426.28;6181191;28;20612;-69
2022/10/09 03:26:27;;;;;;;3.60;1.47;;;;;;;10.30;85.45;102418.59;6181160;28;20230;-69
2022/10/09 03:29:48;;;;;;;4.00;2.40;;;;;;;10.32;86.54;102425.63;6171296;28;20233;-69
2022/10/09 03:33:09;;;;;;;1.83;1.33;;;;;;;10.23;86.45;102418.13;6182718;28;20329;-69
2022/10/09 03:36:30;;;;;;;3.33;1.70;;;;;;;10.15;86.74;102422.25;6184652;28;20238;-69
2022/10/09 03:39:50;;;;;;;2.53;2.13;;;;;;;10.11;87.02;102431.50;6178580;28;20659;-69
2022/10/09 03:43:13;;;;;;;4.30;2.07;;;;;;;10.08;86.65;102440.59;6179768;28;20321;-69
2022/10/09 03:46:34;;;;;;;5.60;2.13;;;;;;;10.05;86.62;102445.31;6181226;28;20257;-69
2022/10/09 03:49:55;;;;;;;9.97;3.07;;;;;;;9.95;87.42;102442.28;6177910;28;20234;-68
2022/10/09 03:53:16;;;;;;;4.73;1.70;;;;;;;9.91;87.01;102443.44;6179626;28;20512;-68
2022/10/09 03:56:37;;;;;;;7.73;2.37;;;;;;;9.88;87.57;102438.25;6179569;28;20237;-69
2022/10/09 03:59:59;;;;;;;2.27;1.40;;;;;;;9.77;87.94;102442.53;6179605;28;20668;-68
2022/10/09 04:03:20;;;;;;;3.23;2.23;;;;;;;9.84;87.73;102454.69;6177042;28;20238;-70
2022/10/09 04:06:41;;;;;;;4.50;1.67;;;;;;;9.90;87.40;102457.00;6171341;28;20237;-69
2022/10/09 04:10:03;;;;;;;6.57;2.37;;;;;;;9.79;87.37;102454.97;6148005;28;20318;-69
2022/10/09 04:13:24;;;;;;;2.87;1.73;;;;;;;9.80;87.48;102453.16;6172089;28;20233;-69
2022/10/09 04:16:46;;;;;;;2.30;2.10;;;;;;;9.77;87.35;102454.19;6174825;28;20234;-70
2022/10/09 04:20:08;;;;;;;5.30;2.30;;;;;;;9.76;86.86;102449.78;6172520;28;20249;-69
2022/10/09 04:23:29;;;;;;;3.90;2.33;;;;;;;9.73;87.37;102449.94;6169841;28;20222;-68
2022/10/09 04:26:50;;;;;;;9.97;2.23;;;;;;;9.64;87.25;102451.38;6173380;28;20321;-70
2022/10/09 04:30:11;;;;;;;5.27;2.10;;;;;;;9.66;87.30;102452.13;6172608;28;20245;-70
2022/10/09 04:33:34;;;;;;;7.60;1.83;;;;;;;9.62;87.39;102447.91;6176030;28;20225;-70
2022/10/09 04:36:55;;;;;;;2.20;2.00;;;;;;;9.48;87.76;102447.84;6193564;28;20234;-70
2022/10/09 04:40:15;;;;;;;3.13;1.20;;;;;;;9.47;88.14;102446.09;6183384;28;20234;-69
2022/10/09 04:43:36;;;;;;;3.20;2.30;;;;;;;9.48;88.06;102447.84;6184801;28;20233;-70
2022/10/09 04:46:57;;;;;;;4.77;1.70;;;;;;;9.36;88.34;102453.97;6181911;28;20632;-70
2022/10/09 04:50:20;;;;;;;2.57;1.70;;;;;;;9.22;89.05;102458.41;6177609;28;20632;-70
2022/10/09 04:53:51;;;;;;;11.93;2.53;;;;;;;9.16;89.82;102458.75;6178390;28;20277;-70
2022/10/09 04:57:12;;;;;;;2.40;2.20;;;;;;;9.12;88.90;102455.38;6180680;28;20328;-69
2022/10/09 05:00:33;;;;;;;3.30;2.63;;;;;;;9.32;88.40;102455.09;6176261;28;20226;-70
2022/10/09 05:03:54;;;;;;;2.43;1.60;;;;;;;9.22;88.42;102442.28;6180604;28;20541;-70
2022/10/09 05:07:17;;;;;;;3.23;1.73;;;;;;;9.22;88.23;102450.34;6182448;28;20332;-71
2022/10/09 05:10:38;;;;;;;5.67;3.03;;;;;;;9.20;88.25;102450.41;6155012;28;20238;-69
2022/10/09 05:13:58;;;;;;;3.13;2.47;;;;;;;9.21;88.14;102456.66;6177697;28;20568;-70
2022/10/09 05:17:20;;;;;;;2.70;1.93;;;;;;;9.19;88.02;102455.91;6178726;28;20229;-70
2022/10/09 05:20:41;;;;;;;5.73;2.57;;;;;;;9.18;87.36;102451.47;6180788;28;20229;-70
2022/10/09 05:24:03;;;;;;;12.73;3.27;;;;;;;8.98;88.13;102458.00;6180044;28;20574;-70
2022/10/09 05:27:24;;;;;;;2.03;1.37;;;;;;;9.03;88.11;102458.59;6182242;28;20343;-69
2022/10/09 05:30:45;;;;;;;3.27;1.50;;;;;;;8.85;88.24;102470.38;6179923;28;20233;-70
2022/10/09 05:34:06;;;;;;;2.23;2.03;;;;;;;8.75;88.63;102459.28;6182185;28;20222;-70
2022/10/09 05:37:27;;;;;;;3.30;2.13;;;;;;;8.89;88.69;102465.72;6182692;28;20226;-70
2022/10/09 05:40:53;;;;;;;2.33;2.03;;;;;;;8.65;88.53;102466.13;6183607;28;20256;-69
2022/10/09 05:44:14;;;;;;;3.13;1.80;;;;;;;8.60;89.18;102468.19;6181741;28;20238;-69
2022/10/09 05:47:35;;;;;;;3.47;1.70;;;;;;;8.54;89.40;102473.03;6181681;28;20234;-69
2022/10/09 05:51:06;;;;;;;2.73;1.83;;;;;;;8.69;88.45;102467.69;6181985;28;20234;-70
2022/10/09 05:54:27;;;;;;;3.90;2.03;;;;;;;8.61;87.53;102474.44;6180608;28;20261;-70
2022/10/09 05:57:49;;;;;;;3.17;2.20;;;;;;;8.71;88.15;102476.56;6179260;28;20234;-71
2022/10/09 06:01:10;;;;;;;3.93;2.10;;;;;;;8.47;88.93;102471.66;6173470;28;20249;-70
2022/10/09 06:04:31;;;;;;;3.40;2.27;;;;;;;8.63;88.40;102484.16;6173907;28;20230;-69
2022/10/09 06:07:52;;;;;;;2.70;1.83;;;;;;;8.75;87.97;102477.25;6179315;28;20230;-70
2022/10/09 06:11:15;;;;;;;3.97;2.60;;;;;;;8.76;87.26;102471.75;6183186;28;20624;-70
2022/10/09 06:14:37;;;;;;;6.47;2.30;;;;;;;8.79;86.73;102476.97;6170154;28;20233;-70
2022/10/09 06:17:58;;;;;;;4.30;3.00;;;;;;;8.72;87.59;102494.41;6177723;28;20221;-70
2022/10/09 06:21:19;;;;;;;5.20;2.27;;;;;;;8.79;87.22;102485.06;6176652;28;20703;-71
2022/10/09 06:24:40;;;;;;;6.37;3.27;;;;;;;8.53;88.09;102482.91;6175836;28;20238;-71
2022/10/09 06:28:02;;;;;;;1.50;1.40;;;;;;;8.44;88.60;102491.50;6176274;28;20229;-70
2022/10/09 06:31:26;;;;;;;4.37;2.20;;;;;;;8.47;88.71;102498.53;6167522;28;20242;-70
2022/10/09 06:34:47;;;;;;;3.30;2.23;;;;;;;8.46;88.47;102494.97;6176717;28;20269;-70
2022/10/09 06:38:08;;;;;;;3.40;2.17;;;;;;;8.53;88.63;102496.34;6179695;28;20317;-70
2022/10/09 06:41:30;;;;;;;3.20;2.03;;;;;;;8.59;88.50;102498.75;6180444;28;20264;-71
2022/10/09 06:44:50;;;;;;;3.30;3.00;;;;;;;8.51;89.15;102513.53;6177017;28;20250;-70
2022/10/09 06:48:12;;;;;;;8.03;2.20;;;;;;;8.72;88.79;102507.84;6171780;28;20585;-70
2022/10/09 06:51:35;;;;;;;2.30;2.00;;;;;;;8.75;88.23;102517.56;6175976;28;20331;-70
2022/10/09 06:54:55;;;;;;;4.23;2.10;;;;;;;8.81;88.71;102522.59;6180516;28;22121;-70
2022/10/09 06:58:16;;;;;;;3.43;2.07;;;;;;;9.12;87.15;102514.56;6171610;28;20234;-70
2022/10/09 07:01:37;;;;;;;2.83;2.27;;;;;;;9.32;86.88;102524.19;6166132;28;20653;-71
2022/10/09 07:05:00;;;;;;;7.73;3.10;;;;;;;9.33;86.43;102525.91;6169562;28;20238;-70
2022/10/09 07:08:21;;;;;;;3.83;3.50;;;;;;;9.44;86.43;102523.50;6170165;28;20230;-71
2022/10/09 07:11:44;;;;;;;4.17;1.97;;;;;;;9.64;85.62;102525.88;6170100;28;20230;-70
2022/10/09 07:15:07;;;;;;;5.40;2.03;;;;;;;9.91;85.09;102526.94;6171199;28;20229;-70
2022/10/09 07:18:28;;;;;;;2.83;1.77;;;;;;;9.70;85.25;102530.91;6171751;28;20316;-70
2022/10/09 07:21:50;;;;;;;3.90;2.03;;;;;;;9.57;85.74;102535.28;6170759;28;20238;-70
2022/10/09 07:25:11;;;;;;;6.93;2.73;;;;;;;9.71;85.76;102535.34;6172276;28;20253;-70
2022/10/09 07:28:32;;;;;;;5.90;3.03;;;;;;;9.56;86.05;102520.97;6175406;28;20250;-71
2022/10/09 07:31:53;;;;;;;5.50;4.47;;;;;;;9.87;85.70;102517.31;6173415;28;20312;-71
2022/10/09 07:35:14;;;;;;;3.60;2.20;;;;;;;10.02;85.40;102531.69;6190522;28;20222;-70
2022/10/09 07:38:36;;;;;;;6.00;1.50;;;;;;;9.99;84.94;102527.34;6185957;28;21088;-72
2022/10/09 07:41:57;;;;;;;5.00;2.97;;;;;;;10.29;84.21;102528.25;6188559;28;20238;-71
2022/10/09 07:45:18;;;;;;;10.40;3.63;;;;;;;10.40;83.74;102528.47;6182678;28;20230;-70
2022/10/09 07:48:39;;;;;;;5.87;2.50;;;;;;;10.52;83.76;102532.22;6179661;28;20233;-71
2022/10/09 07:52:00;;;;;;;2.83;1.90;;;;;;;10.70;83.11;102533.75;6183462;28;20245;-71
2022/10/09 07:55:22;;;;;;;2.43;1.77;;;;;;;10.60;82.87;102535.28;6189625;28;20864;-71
2022/10/09 07:58:48;;;;;;;8.67;3.00;;;;;;;10.58;83.38;102539.91;6185311;28;20234;-70
2022/10/09 08:02:09;;;;;;;5.47;2.57;;;;;;;10.68;83.13;102546.47;6182140;28;20317;-72
2022/10/09 08:05:30;;;;;;;4.83;2.97;;;;;;;11.02;82.82;102539.81;6178202;28;20225;-69
2022/10/09 08:08:52;;;;;;;2.97;1.77;;;;;;;11.23;81.58;102546.53;6186436;28;20324;-71
2022/10/09 08:12:14;;;;;;;4.70;2.67;;;;;;;11.22;81.32;102540.25;6185735;28;20234;-70
2022/10/09 08:15:40;;;;;;;2.60;1.87;;;;;;;11.46;80.89;102545.00;6176007;28;20234;-72
2022/10/09 08:19:02;;;;;;;4.20;1.93;;;;;;;11.40;80.55;102545.41;6187425;28;21285;-72
2022/10/09 08:22:23;;;;;;;4.17;2.07;;;;;;;11.38;80.04;102545.53;6183394;28;20229;-71
2022/10/09 08:25:44;;;;;;;1.53;1.40;;;;;;;11.45;80.22;102552.28;6176817;28;20226;-72
2022/10/09 08:29:07;;;;;;;2.93;2.63;;;;;;;11.45;80.37;102551.41;6178654;28;20230;-71
2022/10/09 08:32:28;;;;;;;2.93;2.17;;;;;;;11.32;80.64;102556.72;6185323;28;20238;-72
2022/10/09 08:35:48;;;;;;;4.13;3.43;;;;;;;11.56;80.00;102549.72;6188055;28;20237;-72
2022/10/09 08:39:10;;;;;;;8.27;1.67;;;;;;;11.84;79.25;102560.47;6185379;28;20620;-72
2022/10/09 08:42:36;;;;;;;3.30;1.60;;;;;;;12.00;78.21;102563.84;6177457;28;20512;-71
2022/10/09 08:46:02;;;;;;;2.93;1.97;;;;;;;12.16;78.67;102558.25;6177807;28;20241;-71
2022/10/09 08:49:28;;;;;;;6.13;2.53;;;;;;;12.41;76.91;102552.88;6179346;28;20234;-72
2022/10/09 08:52:52;;;;;;;4.33;1.77;;;;;;;12.65;77.22;102559.28;6179153;28;20336;-71
2022/10/09 08:56:15;;;;;;;2.40;2.20;;;;;;;12.75;76.04;102549.53;6186292;28;20248;-72
2022/10/09 08:59:36;;;;;;;6.17;2.07;;;;;;;12.99;75.71;102549.63;6177790;28;20324;-72
2022/10/09 09:03:29;;;;;;;7.57;1.97;;;;;;;13.54;73.91;102550.03;6182178;28;20305;-72
2022/10/09 09:07:00;;;;;;;3.50;1.83;;;;;;;13.70;72.30;102548.91;6180338;28;20233;-71
2022/10/09 09:10:32;;;;;;;2.93;2.10;;;;;;;13.24;74.37;102546.91;6182149;28;20232;-71
2022/10/09 09:14:02;;;;;;;2.50;1.50;;;;;;;13.46;73.44;102547.03;6185972;28;20685;-71
2022/10/09 09:17:34;;;;;;;4.07;1.90;;;;;;;13.80;71.68;102548.09;6183475;28;20229;-71
2022/10/09 09:20:58;;;;;;;4.13;1.87;;;;;;;13.66;72.76;102548.28;6179386;28;20229;-70
2022/10/09 09:24:20;;;;;;;4.03;2.00;;;;;;;13.76;72.43;102549.31;6183932;28;20232;-72
2022/10/09 09:27:42;;;;;;;3.37;2.97;;;;;;;13.61;72.71;102558.59;6176076;28;20225;-72
2022/10/09 09:31:08;;;;;;;3.50;2.50;;;;;;;13.83;72.95;102560.56;6179655;28;20230;-72
2022/10/09 09:34:36;;;;;;;7.20;3.03;;;;;;;14.51;70.19;102553.44;6186329;28;20238;-72
2022/10/09 09:37:59;;;;;;;5.40;1.80;;;;;;;15.80;66.62;102544.59;6187658;28;20249;-72
2022/10/09 09:41:20;;;;;;;3.37;1.93;;;;;;;15.70;64.70;102548.22;6178852;28;20329;-71
2022/10/09 09:44:47;;;;;;;5.53;1.20;;;;;;;17.37;59.69;102540.69;6179875;28;20261;-71
2022/10/09 09:48:15;;;;;;;5.13;2.07;;;;;;;20.54;51.42;102526.59;6180319;28;20247;-69
2022/10/09 09:51:36;;;;;;;3.92;1.52;;;;;;;22.32;45.06;102525.34;6175629;28;20244;-70
2022/10/09 09:54:59;;;;;;;3.38;2.20;;;;;;;21.86;46.46;102520.53;6175771;28;20230;-70
2022/10/09 09:58:21;;;;;;;2.08;1.27;;;;;;;26.97;36.49;102522.00;6170723;28;20253;-70
2022/10/09 10:01:42;;;;;;;1.92;1.65;;;;;;;25.43;37.56;102520.88;6169988;28;20821;-70
2022/10/09 10:05:16;;;;;;;3.95;2.20;;;;;;;27.95;34.92;102520.50;6167741;28;20241;-71
2022/10/09 10:08:37;;;;;;;2.05;1.23;;;;;;;29.52;31.67;102514.81;6167498;28;20237;-69
2022/10/09 10:12:02;;;;;;;2.35;1.05;;;;;;;30.47;29.85;102514.66;6163627;28;20225;-68
2022/10/09 10:15:25;;;;;;;2.03;1.00;;;;;;;31.44;28.88;102511.91;6170494;28;20321;-67
2022/10/09 10:18:47;;;;;;;1.08;0.98;;;;;;;30.03;29.82;102509.19;6165924;28;20245;-70
2022/10/09 10:22:24;;;;;;;2.03;1.73;;;;;;;31.03;28.31;102508.97;6167411;28;20495;-68
2022/10/09 10:25:44;;;;;;;1.63;1.05;;;;;;;24.89;37.60;102516.72;6165720;28;20238;-70
2022/10/09 10:29:15;;;;;;;4.53;2.10;;;;;;;19.28;49.58;102520.50;6184074;28;20322;-69
2022/10/09 10:32:47;;;;;;;3.78;1.38;;;;;;;20.39;47.69;102511.75;6177571;28;20253;-70
2022/10/09 10:36:10;;;;;;;4.22;1.65;;;;;;;20.06;49.36;102523.44;6176857;28;20516;-69
2022/10/09 10:39:37;;;;;;;1.52;1.10;;;;;;;18.92;52.14;102519.53;6186296;28;20257;-69
2022/10/09 10:43:15;;;;;;;3.97;1.52;;;;;;;21.05;49.88;102517.50;6179468;28;20757;-69
2022/10/09 10:46:47;;;;;;;2.70;1.52;;;;;;;21.39;46.27;102504.59;6189334;28;20324;-69
2022/10/09 10:50:12;;;;;;;3.78;1.40;;;;;;;19.57;50.93;102504.78;6181965;28;20238;-69
2022/10/09 10:53:47;;;;;;;8.35;1.90;;;;;;;24.25;41.92;102493.38;6190163;28;20534;-70
2022/10/09 10:57:14;;;;;;;2.60;0.93;;;;;;;28.09;31.92;102490.88;6163017;28;20241;-70
2022/10/09 11:00:41;;;;;;;3.03;1.55;;;;;;;28.84;30.50;102493.22;6183497;28;20230;-70
2022/10/09 11:04:17;;;;;;;2.97;1.10;;;;;;;29.87;29.06;102477.19;6185400;28;20544;-69
2022/10/09 11:07:48;;;;;;;1.33;1.23;;;;;;;30.11;28.79;102469.94;6174921;28;20320;-69
2022/10/09 11:11:14;;;;;;;1.83;1.08;;;;;;;30.40;27.86;102477.66;6173281;28;21398;-70
2022/10/09 11:14:47;;;;;;;2.72;0.60;;;;;;;27.63;29.30;102479.69;6174107;28;20230;-71
2022/10/09 11:18:22;;;;;;;2.15;0.68;;;;;;;27.55;30.39;102469.66;6439314;23;20546;-71
2022/10/09 11:21:57;;;;;;;0.50;0.43;;;;;;;25.70;31.24;102466.81;6222023;28;20260;-70
2022/10/09 11:25:30;;;;;;;2.75;1.30;;;;;;;22.99;36.96;102469.88;6196669;28;20233;-70
2022/10/09 11:28:55;;;;;;;4.50;0.82;;;;;;;24.05;35.05;102468.25;6206965;28;20332;-69
2022/10/09 11:32:21;;;;;;;0.65;0.50;;;;;;;27.82;30.04;102453.94;6201910;28;20320;-69
2022/10/09 11:35:47;;;;;;;1.95;1.17;;;;;;;24.68;33.55;102466.94;6209580;28;20534;-71
2022/10/09 11:39:13;;;;;;;0.90;0.80;;;;;;;24.88;34.27;102452.41;6203729;28;20335;-70
2022/10/09 11:42:35;;;;;;;3.35;0.80;;;;;;;23.77;35.98;102454.16;6226332;28;20224;-70
2022/10/09 11:46:00;;;;;;;1.80;0.75;;;;;;;25.97;33.53;102447.50;6225540;28;20551;-70
2022/10/09 11:49:29;;;;;;;2.55;0.93;;;;;;;27.00;30.89;102442.13;6229835;28;20232;-70
2022/10/09 11:52:58;;;;;;;4.32;1.95;;;;;;;27.10;30.28;102434.28;6221378;28;20709;-70
2022/10/09 11:56:24;;;;;;;3.33;1.20;;;;;;;27.03;30.64;102435.31;6223756;28;20232;-69
2022/10/09 11:59:45;;;;;;;0.98;0.80;;;;;;;27.82;29.72;102428.97;6204946;28;20575;-71
2022/10/09 12:03:07;;;;;;;2.88;0.95;;;;;;;30.04;26.25;102416.28;6189443;28;20557;-71
2022/10/09 12:06:29;;;;;;;3.50;1.58;;;;;;;25.80;33.48;102420.38;6210592;28;20229;-69
2022/10/09 12:09:56;;;;;;;1.33;0.63;;;;;;;24.75;33.08;102421.00;6228326;28;20229;-70
2022/10/09 12:13:44;;;;;;;3.83;1.30;;;;;;;22.12;37.45;102414.94;6227991;28;20625;-71
2022/10/09 12:17:16;;;;;;;1.48;0.70;;;;;;;23.24;35.50;102412.00;6229025;28;20229;-71
2022/10/09 12:20:37;;;;;;;3.72;1.92;;;;;;;27.95;28.41;102395.72;6200720;28;20245;-71
2022/10/09 12:23:58;;;;;;;2.72;0.82;;;;;;;25.10;32.59;102398.09;6201023;28;20233;-71
2022/10/09 12:27:23;;;;;;;0.90;0.68;;;;;;;25.20;32.21;102393.16;6205763;28;20253;-70
2022/10/09 12:30:48;;;;;;;0.90;0.63;;;;;;;24.99;33.50;102393.94;6199379;28;20228;-70
2022/10/09 12:34:17;;;;;;;2.22;1.30;;;;;;;20.78;39.92;102394.28;6206403;28;20229;-70
2022/10/09 12:37:38;;;;;;;1.55;1.45;;;;;;;22.46;38.46;102386.34;6183040;28;20317;-70
2022/10/09 12:41:02;;;;;;;1.52;0.70;;;;;;;21.15;40.27;102386.53;6190293;28;20522;-70
2022/10/09 12:44:30;;;;;;;3.17;1.48;;;;;;;19.36;44.09;102383.88;6207806;28;20251;-70
2022/10/09 12:47:53;;;;;;;7.15;1.25;;;;;;;19.15;45.80;102376.78;6207660;28;20265;-70
2022/10/09 12:51:19;;;;;;;2.83;1.20;;;;;;;21.65;40.75;102361.75;6198987;28;20238;-72
2022/10/09 12:54:42;;;;;;;2.40;1.00;;;;;;;21.44;39.49;102355.91;6178493;28;20230;-71
2022/10/09 12:58:07;;;;;;;1.63;0.80;;;;;;;19.83;42.59;102356.06;6178614;28;20222;-70
2022/10/09 13:01:29;;;;;;;1.17;1.08;;;;;;;17.67;46.98;102365.22;6185635;28;20667;-72
2022/10/09 13:04:59;;;;;;;0.70;0.70;;;;;;;16.44;50.62;102359.38;6189065;28;20226;-71
2022/10/09 13:08:25;;;;;;;4.05;1.70;;;;;;;17.67;49.43;102357.03;6191364;28;20257;-70
2022/10/09 13:11:53;;;;;;;2.60;2.05;;;;;;;17.05;49.80;102351.97;6193595;28;20232;-71
2022/10/09 13:15:29;;;;;;;2.72;2.15;;;;;;;17.38;49.42;102355.13;6200088;28;21074;-70
2022/10/09 13:18:56;;;;;;;3.20;2.25;;;;;;;16.98;50.25;102340.78;6196793;28;20225;-71
2022/10/09 13:22:21;;;;;;;2.60;1.17;;;;;;;16.08;52.59;102346.34;6199931;28;22312;-70
2022/10/09 13:25:43;;;;;;;2.13;0.82;;;;;;;19.39;47.01;102329.72;6200506;28;20233;-71
2022/10/09 13:29:06;;;;;;;5.53;1.45;;;;;;;22.24;39.32;102320.13;6190586;28;20316;-71
2022/10/09 13:32:27;;;;;;;3.05;1.00;;;;;;;24.41;33.09;102311.22;6172516;28;21059;-70
2022/10/09 13:35:48;;;;;;;2.97;1.50;;;;;;;21.19;39.07;102316.63;6186588;28;20622;-68
2022/10/09 13:39:13;;;;;;;0.77;0.77;;;;;;;18.86;42.84;102316.00;6190113;28;20236;-70
2022/10/09 13:42:36;;;;;;;1.75;1.40;;;;;;;19.01;42.61;102317.19;6193190;28;20308;-71
2022/10/09 13:45:57;;;;;;;3.60;2.35;;;;;;;18.52;44.44;102300.44;6185802;28;20539;-70
2022/10/09 13:49:18;;;;;;;3.40;1.52;;;;;;;20.16;41.46;102298.75;6187245;28;20316;-71
2022/10/09 13:52:39;;;;;;;1.33;0.73;;;;;;;19.35;43.04;102300.09;6187923;28;20634;-71
2022/10/09 13:56:02;;;;;;;2.03;0.90;;;;;;;20.58;40.93;102289.56;6180207;28;20319;-69
2022/10/09 13:59:23;;;;;;;2.92;1.73;;;;;;;22.74;36.74;102278.50;6183855;28;20245;-69
2022/10/09 14:02:44;;;;;;;5.88;1.13;;;;;;;23.14;36.03;102282.84;6190410;28;20631;-69
2022/10/09 14:06:06;;;;;;;2.28;1.20;;;;;;;23.24;35.53;102274.38;6186855;28;20732;-70
2022/10/09 14:09:27;;;;;;;3.13;1.40;;;;;;;21.70;37.42;102276.97;6188670;28;20546;-69
2022/10/09 14:12:50;;;;;;;1.38;0.80;;;;;;;21.37;37.21;102269.81;6190883;28;20229;-68
2022/10/09 14:16:12;;;;;;;1.02;0.75;;;;;;;21.89;36.33;102265.63;6193501;28;20610;-69
2022/10/09 14:19:33;;;;;;;1.30;1.20;;;;;;;24.10;33.32;102260.97;6187308;28;20670;-70
2022/10/09 14:22:54;;;;;;;3.70;1.13;;;;;;;23.46;34.84;102260.59;6199452;28;20229;-70
2022/10/09 14:26:15;;;;;;;2.88;1.10;;;;;;;21.47;37.91;102252.13;6195602;28;20257;-68
2022/10/09 14:29:38;;;;;;;1.00;0.70;;;;;;;23.78;34.29;102245.66;6182657;28;20511;-72
2022/10/09 14:32:59;;;;;;;1.88;0.73;;;;;;;20.98;38.99;102236.69;6207728;28;20237;-71
2022/10/09 14:36:20;;;;;;;4.07;2.08;;;;;;;21.34;39.16;102235.31;6205601;28;20229;-72
2022/10/09 14:39:42;;;;;;;1.98;0.90;;;;;;;22.08;37.66;102229.50;6212358;28;20502;-71
2022/10/09 14:43:03;;;;;;;2.90;0.70;;;;;;;20.96;39.42;102235.13;6217358;28;20237;-71
2022/10/09 14:46:26;;;;;;;5.22;2.40;;;;;;;21.67;38.68;102224.31;6214301;28;20589;-71
2022/10/09 14:49:47;;;;;;;3.75;3.33;;;;;;;21.46;38.88;102216.63;6219282;28;20224;-71
2022/10/09 14:53:08;;;;;;;1.77;1.27;;;;;;;20.83;39.54;102212.84;6214313;28;20245;-71
2022/10/09 14:56:29;;;;;;;8.73;2.88;;;;;;;19.77;42.51;102219.88;6207783;28;20279;-70
2022/10/09 14:59:50;;;;;;;2.78;0.70;;;;;;;18.93;44.05;102206.91;6200033;28;20509;-71
2022/10/09 15:03:12;;;;;;;0.60;0.60;;;;;;;19.00;44.70;102202.56;6200980;28;20321;-71
2022/10/09 15:06:34;;;;;;;2.95;0.93;;;;;;;19.41;44.25;102203.72;6200104;28;20229;-72
2022/10/09 15:09:56;;;;;;;4.13;1.75;;;;;;;18.77;45.05;102196.72;6200899;28;20521;-71
2022/10/09 15:13:17;;;;;;;1.83;1.38;;;;;;;18.45;46.29;102193.66;6199056;28;20222;-71
2022/10/09 15:16:38;;;;;;;3.20;0.85;;;;;;;17.69;48.24;102185.91;6182575;28;20235;-70
2022/10/09 15:20:00;;;;;;;2.85;2.45;;;;;;;17.09;49.06;102192.63;6173117;28;20237;-72
2022/10/09 15:23:21;;;;;;;3.20;1.20;;;;;;;17.21;49.50;102186.03;6203543;28;20546;-71
2022/10/09 15:26:42;;;;;;;3.40;1.35;;;;;;;16.46;50.50;102184.03;6209785;28;20225;-71
2022/10/09 15:30:04;;;;;;;1.10;1.10;;;;;;;16.26;51.37;102185.00;6191560;28;20237;-70
2022/10/09 15:33:25;;;;;;;3.97;1.80;;;;;;;16.50;52.03;102176.47;6173337;28;21059;-69
2022/10/09 15:36:47;;;;;;;3.05;0.70;;;;;;;16.25;52.15;102177.84;6174650;28;20639;-72
2022/10/09 15:40:09;;;;;;;1.57;1.47;;;;;;;16.21;52.47;102176.41;6171358;28;20242;-70
2022/10/09 15:43:32;;;;;;;6.23;1.33;;;;;;;16.24;52.62;102165.25;6172573;28;20237;-71
2022/10/09 15:46:53;;;;;;;3.37;1.10;;;;;;;16.16;52.69;102164.22;6170840;28;20568;-72
2022/10/09 15:50:14;;;;;;;3.90;1.00;;;;;;;15.61;53.95;102152.03;6167230;28;20233;-71